sensor_id;sensor_type;location;lat;lon;timestamp;P1;durP1;ratioP1;P2;durP2;ratioP2
7791;SDS011;3940;49.892;10.886;2022-10-17T00:00:05;12.43;;;4.60;;
7791;SDS011;3940;49.892;10.886;2022-10-17T00:02:50;5.67;;;5.17;;
7791;SDS011;3940;49.892;10.886;2022-10-17T00:05:38;5.90;;;4.40;;
7791;SDS011;3940;49.892;10.886;2022-10-17T00:08:24;4.73;;;3.97;;
7791;SDS011;3940;49.892;10.886;2022-10-17T00:11:13;7.83;;;4.20;;
7791;SDS011;3940;49.892;10.886;2022-10-17T00:13:59;4.50;;;3.67;;
7791;SDS011;3940;49.892;10.886;2022-10-17T00:16:44;11.77;;;4.20;;
7791;SDS011;3940;49.892;10.886;2022-10-17T00:19:28;6.43;;;4.57;;
7791;SDS011;3940;49.892;10.886;2022-10-17T00:22:13;10.13;;;3.73;;
7791;SDS011;3940;49.892;10.886;2022-10-17T00:24:57;11.00;;;4.53;;
7791;SDS011;3940;49.892;10.886;2022-10-17T00:27:42;5.60;;;4.57;;
7791;SDS011;3940;49.892;10.886;2022-10-17T00:30:26;6.80;;;3.83;;
7791;SDS011;3940;49.892;10.886;2022-10-17T00:33:11;6.80;;;3.43;;
7791;SDS011;3940;49.892;10.886;2022-10-17T00:36:03;6.77;;;3.67;;
7791;SDS011;3940;49.892;10.886;2022-10-17T00:38:51;11.07;;;3.80;;
7791;SDS011;3940;49.892;10.886;2022-10-17T00:41:37;10.23;;;3.50;;
7791;SDS011;3940;49.892;10.886;2022-10-17T00:47:47;3.73;;;3.43;;
7791;SDS011;3940;49.892;10.886;2022-10-17T00:50:38;6.80;;;3.63;;
7791;SDS011;3940;49.892;10.886;2022-10-17T00:53:25;4.77;;;3.10;;
7791;SDS011;3940;49.892;10.886;2022-10-17T00:56:09;4.37;;;3.97;;
7791;SDS011;3940;49.892;10.886;2022-10-17T00:58:55;11.80;;;4.50;;
7791;SDS011;3940;49.892;10.886;2022-10-17T01:01:40;4.17;;;3.87;;
7791;SDS011;3940;49.892;10.886;2022-10-17T01:04:26;5.57;;;5.03;;
7791;SDS011;3940;49.892;10.886;2022-10-17T01:07:11;9.80;;;4.80;;
7791;SDS011;3940;49.892;10.886;2022-10-17T01:09:55;5.03;;;4.00;;
7791;SDS011;3940;49.892;10.886;2022-10-17T01:16:00;5.67;;;4.83;;
7791;SDS011;3940;49.892;10.886;2022-10-17T01:19:02;5.00;;;4.50;;
7791;SDS011;3940;49.892;10.886;2022-10-17T01:22:08;6.40;;;4.40;;
7791;SDS011;3940;49.892;10.886;2022-10-17T01:25:22;4.50;;;4.07;;
7791;SDS011;3940;49.892;10.886;2022-10-17T01:31:45;4.73;;;4.33;;
7791;SDS011;3940;49.892;10.886;2022-10-17T01:34:56;7.33;;;4.10;;
7791;SDS011;3940;49.892;10.886;2022-10-17T01:37:47;8.20;;;4.20;;
7791;SDS011;3940;49.892;10.886;2022-10-17T01:40:50;5.03;;;4.53;;
7791;SDS011;3940;49.892;10.886;2022-10-17T01:43:46;3.53;;;3.20;;
7791;SDS011;3940;49.892;10.886;2022-10-17T01:46:37;7.97;;;4.80;;
7791;SDS011;3940;49.892;10.886;2022-10-17T01:49:23;6.60;;;4.50;;
7791;SDS011;3940;49.892;10.886;2022-10-17T01:52:11;4.20;;;3.70;;
7791;SDS011;3940;49.892;10.886;2022-10-17T01:55:02;12.00;;;4.30;;
7791;SDS011;3940;49.892;10.886;2022-10-17T01:57:53;3.90;;;3.60;;
7791;SDS011;3940;49.892;10.886;2022-10-17T02:00:43;4.80;;;3.57;;
7791;SDS011;3940;49.892;10.886;2022-10-17T02:03:29;4.40;;;4.00;;
7791;SDS011;3940;49.892;10.886;2022-10-17T02:06:14;4.50;;;4.10;;
7791;SDS011;3940;49.892;10.886;2022-10-17T02:08:58;4.43;;;4.03;;
7791;SDS011;3940;49.892;10.886;2022-10-17T02:11:43;5.80;;;4.00;;
7791;SDS011;3940;49.892;10.886;2022-10-17T02:18:06;3.23;;;2.93;;
7791;SDS011;3940;49.892;10.886;2022-10-17T02:20:59;5.40;;;3.60;;
7791;SDS011;3940;49.892;10.886;2022-10-17T02:23:51;9.83;;;4.10;;
7791;SDS011;3940;49.892;10.886;2022-10-17T02:26:54;4.00;;;3.70;;
7791;SDS011;3940;49.892;10.886;2022-10-17T02:29:47;4.50;;;2.80;;
7791;SDS011;3940;49.892;10.886;2022-10-17T02:32:43;4.40;;;3.60;;
7791;SDS011;3940;49.892;10.886;2022-10-17T02:35:35;4.27;;;3.87;;
7791;SDS011;3940;49.892;10.886;2022-10-17T02:38:23;7.97;;;3.83;;
7791;SDS011;3940;49.892;10.886;2022-10-17T02:41:10;3.80;;;3.50;;
7791;SDS011;3940;49.892;10.886;2022-10-17T02:43:58;13.83;;;3.80;;
7791;SDS011;3940;49.892;10.886;2022-10-17T02:46:46;5.77;;;4.60;;
7791;SDS011;3940;49.892;10.886;2022-10-17T02:49:39;5.80;;;3.17;;
7791;SDS011;3940;49.892;10.886;2022-10-17T02:52:33;4.00;;;3.70;;
7791;SDS011;3940;49.892;10.886;2022-10-17T02:55:29;14.73;;;3.87;;
7791;SDS011;3940;49.892;10.886;2022-10-17T02:58:19;4.20;;;3.67;;
7791;SDS011;3940;49.892;10.886;2022-10-17T03:01:07;4.10;;;3.70;;
7791;SDS011;3940;49.892;10.886;2022-10-17T03:04:03;6.93;;;3.67;;
7791;SDS011;3940;49.892;10.886;2022-10-17T03:06:50;10.37;;;3.83;;
7791;SDS011;3940;49.892;10.886;2022-10-17T03:09:35;11.00;;;4.30;;
7791;SDS011;3940;49.892;10.886;2022-10-17T03:12:19;5.67;;;3.97;;
7791;SDS011;3940;49.892;10.886;2022-10-17T03:15:04;3.93;;;3.40;;
7791;SDS011;3940;49.892;10.886;2022-10-17T03:17:49;4.07;;;3.00;;
7791;SDS011;3940;49.892;10.886;2022-10-17T03:20:33;7.07;;;3.87;;
7791;SDS011;3940;49.892;10.886;2022-10-17T03:23:17;4.10;;;3.60;;
7791;SDS011;3940;49.892;10.886;2022-10-17T03:26:03;5.17;;;3.90;;
7791;SDS011;3940;49.892;10.886;2022-10-17T03:28:48;7.47;;;3.90;;
7791;SDS011;3940;49.892;10.886;2022-10-17T03:31:32;4.10;;;3.70;;
7791;SDS011;3940;49.892;10.886;2022-10-17T03:34:16;6.20;;;3.40;;
7791;SDS011;3940;49.892;10.886;2022-10-17T03:37:01;7.30;;;3.83;;
7791;SDS011;3940;49.892;10.886;2022-10-17T03:39:46;4.17;;;3.60;;
7791;SDS011;3940;49.892;10.886;2022-10-17T03:42:30;6.87;;;4.07;;
7791;SDS011;3940;49.892;10.886;2022-10-17T03:45:15;3.80;;;3.50;;
7791;SDS011;3940;49.892;10.886;2022-10-17T03:47:59;12.60;;;4.27;;
7791;SDS011;3940;49.892;10.886;2022-10-17T03:50:43;6.10;;;5.13;;
7791;SDS011;3940;49.892;10.886;2022-10-17T03:53:28;4.30;;;3.90;;
7791;SDS011;3940;49.892;10.886;2022-10-17T03:56:13;7.53;;;3.67;;
7791;SDS011;3940;49.892;10.886;2022-10-17T03:59:00;7.03;;;4.00;;
7791;SDS011;3940;49.892;10.886;2022-10-17T04:01:44;6.10;;;4.33;;
7791;SDS011;3940;49.892;10.886;2022-10-17T04:04:28;3.90;;;3.50;;
7791;SDS011;3940;49.892;10.886;2022-10-17T04:07:12;5.17;;;4.33;;
7791;SDS011;3940;49.892;10.886;2022-10-17T04:09:56;4.83;;;3.70;;
7791;SDS011;3940;49.892;10.886;2022-10-17T04:12:40;4.20;;;3.80;;
7791;SDS011;3940;49.892;10.886;2022-10-17T04:15:24;11.10;;;4.27;;
7791;SDS011;3940;49.892;10.886;2022-10-17T04:18:08;4.97;;;3.93;;
7791;SDS011;3940;49.892;10.886;2022-10-17T04:20:52;4.87;;;3.77;;
7791;SDS011;3940;49.892;10.886;2022-10-17T04:23:37;8.30;;;4.43;;
7791;SDS011;3940;49.892;10.886;2022-10-17T04:26:22;8.10;;;4.27;;
7791;SDS011;3940;49.892;10.886;2022-10-17T04:29:06;3.93;;;3.53;;
7791;SDS011;3940;49.892;10.886;2022-10-17T04:31:51;8.50;;;5.17;;
7791;SDS011;3940;49.892;10.886;2022-10-17T04:34:35;7.23;;;3.90;;
7791;SDS011;3940;49.892;10.886;2022-10-17T04:37:19;4.87;;;4.40;;
7791;SDS011;3940;49.892;10.886;2022-10-17T04:40:03;4.87;;;4.47;;
7791;SDS011;3940;49.892;10.886;2022-10-17T04:42:48;4.77;;;3.97;;
7791;SDS011;3940;49.892;10.886;2022-10-17T04:45:32;4.87;;;4.37;;
7791;SDS011;3940;49.892;10.886;2022-10-17T04:48:16;7.23;;;4.90;;
7791;SDS011;3940;49.892;10.886;2022-10-17T04:51:02;4.40;;;3.83;;
7791;SDS011;3940;49.892;10.886;2022-10-17T04:53:51;3.90;;;3.60;;
7791;SDS011;3940;49.892;10.886;2022-10-17T04:56:35;6.33;;;4.30;;
7791;SDS011;3940;49.892;10.886;2022-10-17T04:59:20;5.00;;;4.33;;
7791;SDS011;3940;49.892;10.886;2022-10-17T05:02:05;9.03;;;3.53;;
7791;SDS011;3940;49.892;10.886;2022-10-17T05:04:50;9.77;;;3.87;;
7791;SDS011;3940;49.892;10.886;2022-10-17T05:07:34;4.90;;;4.30;;
7791;SDS011;3940;49.892;10.886;2022-10-17T05:10:18;4.53;;;4.13;;
7791;SDS011;3940;49.892;10.886;2022-10-17T05:13:02;14.50;;;4.27;;
7791;SDS011;3940;49.892;10.886;2022-10-17T05:15:47;4.50;;;4.10;;
7791;SDS011;3940;49.892;10.886;2022-10-17T05:18:31;3.80;;;3.50;;
7791;SDS011;3940;49.892;10.886;2022-10-17T05:21:15;4.70;;;4.30;;
7791;SDS011;3940;49.892;10.886;2022-10-17T05:23:59;4.50;;;4.10;;
7791;SDS011;3940;49.892;10.886;2022-10-17T05:26:44;4.50;;;3.73;;
7791;SDS011;3940;49.892;10.886;2022-10-17T05:29:28;3.53;;;3.30;;
7791;SDS011;3940;49.892;10.886;2022-10-17T05:32:12;8.73;;;3.97;;
7791;SDS011;3940;49.892;10.886;2022-10-17T05:34:57;5.43;;;3.93;;
7791;SDS011;3940;49.892;10.886;2022-10-17T05:37:42;4.10;;;3.80;;
7791;SDS011;3940;49.892;10.886;2022-10-17T05:40:26;5.00;;;3.70;;
7791;SDS011;3940;49.892;10.886;2022-10-17T05:43:10;5.33;;;3.60;;
7791;SDS011;3940;49.892;10.886;2022-10-17T05:45:55;4.20;;;3.80;;
7791;SDS011;3940;49.892;10.886;2022-10-17T05:48:39;3.80;;;3.50;;
7791;SDS011;3940;49.892;10.886;2022-10-17T05:51:23;4.23;;;3.70;;
7791;SDS011;3940;49.892;10.886;2022-10-17T05:54:07;9.23;;;4.10;;
7791;SDS011;3940;49.892;10.886;2022-10-17T05:56:52;5.47;;;3.57;;
7791;SDS011;3940;49.892;10.886;2022-10-17T05:59:38;8.00;;;3.80;;
7791;SDS011;3940;49.892;10.886;2022-10-17T06:02:22;6.53;;;3.77;;
7791;SDS011;3940;49.892;10.886;2022-10-17T06:05:07;4.37;;;3.97;;
7791;SDS011;3940;49.892;10.886;2022-10-17T06:07:51;8.47;;;4.13;;
7791;SDS011;3940;49.892;10.886;2022-10-17T06:10:36;4.20;;;3.90;;
7791;SDS011;3940;49.892;10.886;2022-10-17T06:13:21;5.10;;;4.07;;
7791;SDS011;3940;49.892;10.886;2022-10-17T06:16:05;4.27;;;3.90;;
7791;SDS011;3940;49.892;10.886;2022-10-17T06:18:50;13.37;;;4.13;;
7791;SDS011;3940;49.892;10.886;2022-10-17T06:21:34;3.83;;;3.53;;
7791;SDS011;3940;49.892;10.886;2022-10-17T06:24:20;5.20;;;3.40;;
7791;SDS011;3940;49.892;10.886;2022-10-17T06:27:04;5.97;;;4.10;;
7791;SDS011;3940;49.892;10.886;2022-10-17T06:29:48;5.83;;;4.43;;
7791;SDS011;3940;49.892;10.886;2022-10-17T06:32:33;6.10;;;3.90;;
7791;SDS011;3940;49.892;10.886;2022-10-17T06:35:18;7.20;;;4.80;;
7791;SDS011;3940;49.892;10.886;2022-10-17T06:38:03;6.03;;;3.37;;
7791;SDS011;3940;49.892;10.886;2022-10-17T06:40:47;6.43;;;4.30;;
7791;SDS011;3940;49.892;10.886;2022-10-17T06:43:32;6.00;;;3.77;;
7791;SDS011;3940;49.892;10.886;2022-10-17T06:46:18;4.90;;;4.43;;
7791;SDS011;3940;49.892;10.886;2022-10-17T06:49:03;3.50;;;3.13;;
7791;SDS011;3940;49.892;10.886;2022-10-17T06:51:47;6.43;;;3.73;;
7791;SDS011;3940;49.892;10.886;2022-10-17T06:54:31;6.50;;;3.77;;
7791;SDS011;3940;49.892;10.886;2022-10-17T06:57:16;4.87;;;4.37;;
7791;SDS011;3940;49.892;10.886;2022-10-17T07:00:01;7.07;;;4.83;;
7791;SDS011;3940;49.892;10.886;2022-10-17T07:02:45;5.10;;;4.00;;
7791;SDS011;3940;49.892;10.886;2022-10-17T07:05:31;4.07;;;3.73;;
7791;SDS011;3940;49.892;10.886;2022-10-17T07:08:16;3.90;;;3.40;;
7791;SDS011;3940;49.892;10.886;2022-10-17T07:11:09;4.37;;;3.97;;
7791;SDS011;3940;49.892;10.886;2022-10-17T07:13:55;5.87;;;4.70;;
7791;SDS011;3940;49.892;10.886;2022-10-17T07:16:39;15.50;;;5.53;;
7791;SDS011;3940;49.892;10.886;2022-10-17T07:19:24;5.80;;;4.97;;
7791;SDS011;3940;49.892;10.886;2022-10-17T07:22:09;7.00;;;5.47;;
7791;SDS011;3940;49.892;10.886;2022-10-17T07:24:53;7.03;;;5.57;;
7791;SDS011;3940;49.892;10.886;2022-10-17T07:27:38;4.93;;;4.50;;
7791;SDS011;3940;49.892;10.886;2022-10-17T07:30:23;9.63;;;5.90;;
7791;SDS011;3940;49.892;10.886;2022-10-17T07:33:07;5.40;;;4.90;;
7791;SDS011;3940;49.892;10.886;2022-10-17T07:35:51;5.70;;;5.20;;
7791;SDS011;3940;49.892;10.886;2022-10-17T07:38:36;5.40;;;4.90;;
7791;SDS011;3940;49.892;10.886;2022-10-17T07:41:20;7.07;;;5.50;;
7791;SDS011;3940;49.892;10.886;2022-10-17T07:44:04;6.17;;;5.57;;
7791;SDS011;3940;49.892;10.886;2022-10-17T07:46:49;9.27;;;4.57;;
7791;SDS011;3940;49.892;10.886;2022-10-17T07:49:33;5.77;;;4.47;;
7791;SDS011;3940;49.892;10.886;2022-10-17T07:52:18;4.50;;;3.97;;
7791;SDS011;3940;49.892;10.886;2022-10-17T07:55:02;11.93;;;5.30;;
7791;SDS011;3940;49.892;10.886;2022-10-17T07:57:46;6.67;;;6.00;;
7791;SDS011;3940;49.892;10.886;2022-10-17T08:00:30;8.60;;;4.83;;
7791;SDS011;3940;49.892;10.886;2022-10-17T08:03:15;11.50;;;4.57;;
7791;SDS011;3940;49.892;10.886;2022-10-17T08:06:00;10.00;;;6.67;;
7791;SDS011;3940;49.892;10.886;2022-10-17T08:08:45;5.47;;;4.97;;
7791;SDS011;3940;49.892;10.886;2022-10-17T08:11:29;14.75;;;6.00;;
7791;SDS011;3940;49.892;10.886;2022-10-17T08:14:14;7.10;;;6.20;;
7791;SDS011;3940;49.892;10.886;2022-10-17T08:16:59;6.70;;;4.93;;
7791;SDS011;3940;49.892;10.886;2022-10-17T08:19:44;9.37;;;5.93;;
7791;SDS011;3940;49.892;10.886;2022-10-17T08:22:28;5.00;;;4.60;;
7791;SDS011;3940;49.892;10.886;2022-10-17T08:25:12;9.60;;;5.00;;
7791;SDS011;3940;49.892;10.886;2022-10-17T08:27:57;6.80;;;4.83;;
7791;SDS011;3940;49.892;10.886;2022-10-17T08:30:41;8.10;;;4.30;;
7791;SDS011;3940;49.892;10.886;2022-10-17T08:33:26;4.27;;;3.87;;
7791;SDS011;3940;49.892;10.886;2022-10-17T08:36:12;13.27;;;5.00;;
7791;SDS011;3940;49.892;10.886;2022-10-17T08:38:57;9.63;;;5.00;;
7791;SDS011;3940;49.892;10.886;2022-10-17T08:45:06;4.93;;;3.70;;
7791;SDS011;3940;49.892;10.886;2022-10-17T08:47:59;6.37;;;5.10;;
7791;SDS011;3940;49.892;10.886;2022-10-17T08:50:49;6.60;;;4.30;;
7791;SDS011;3940;49.892;10.886;2022-10-17T08:56:44;4.60;;;4.13;;
7791;SDS011;3940;49.892;10.886;2022-10-17T08:59:32;7.43;;;4.37;;
7791;SDS011;3940;49.892;10.886;2022-10-17T09:02:21;4.07;;;3.70;;
7791;SDS011;3940;49.892;10.886;2022-10-17T09:08:36;9.20;;;5.10;;
7791;SDS011;3940;49.892;10.886;2022-10-17T09:14:41;11.00;;;5.47;;
7791;SDS011;3940;49.892;10.886;2022-10-17T09:17:55;13.00;;;4.80;;
7791;SDS011;3940;49.892;10.886;2022-10-17T09:20:44;14.10;;;4.53;;
7791;SDS011;3940;49.892;10.886;2022-10-17T09:23:38;7.60;;;3.90;;
7791;SDS011;3940;49.892;10.886;2022-10-17T09:26:29;26.00;;;6.37;;
7791;SDS011;3940;49.892;10.886;2022-10-17T09:29:15;9.97;;;3.63;;
7791;SDS011;3940;49.892;10.886;2022-10-17T09:32:23;16.23;;;6.00;;
7791;SDS011;3940;49.892;10.886;2022-10-17T09:35:11;4.67;;;3.30;;
7791;SDS011;3940;49.892;10.886;2022-10-17T09:37:57;12.30;;;4.40;;
7791;SDS011;3940;49.892;10.886;2022-10-17T09:40:41;5.30;;;3.77;;
7791;SDS011;3940;49.892;10.886;2022-10-17T09:43:27;3.90;;;3.50;;
7791;SDS011;3940;49.892;10.886;2022-10-17T09:49:16;4.93;;;4.00;;
7791;SDS011;3940;49.892;10.886;2022-10-17T09:52:03;5.30;;;3.97;;
7791;SDS011;3940;49.892;10.886;2022-10-17T09:54:55;8.33;;;3.70;;
7791;SDS011;3940;49.892;10.886;2022-10-17T09:57:53;2.60;;;2.40;;
7791;SDS011;3940;49.892;10.886;2022-10-17T10:00:41;3.53;;;2.87;;
7791;SDS011;3940;49.892;10.886;2022-10-17T10:03:28;7.63;;;3.73;;
7791;SDS011;3940;49.892;10.886;2022-10-17T10:06:15;7.40;;;3.33;;
7791;SDS011;3940;49.892;10.886;2022-10-17T10:09:00;2.93;;;2.63;;
7791;SDS011;3940;49.892;10.886;2022-10-17T10:11:49;3.73;;;3.23;;
7791;SDS011;3940;49.892;10.886;2022-10-17T10:14:37;19.27;;;3.30;;
7791;SDS011;3940;49.892;10.886;2022-10-17T10:20:26;2.50;;;2.30;;
7791;SDS011;3940;49.892;10.886;2022-10-17T10:23:17;3.30;;;2.60;;
7791;SDS011;3940;49.892;10.886;2022-10-17T10:26:04;7.73;;;2.80;;
7791;SDS011;3940;49.892;10.886;2022-10-17T10:38:17;3.07;;;2.83;;
7791;SDS011;3940;49.892;10.886;2022-10-17T10:41:03;7.40;;;4.03;;
7791;SDS011;3940;49.892;10.886;2022-10-17T10:43:50;3.00;;;2.80;;
7791;SDS011;3940;49.892;10.886;2022-10-17T10:46:37;2.57;;;2.37;;
7791;SDS011;3940;49.892;10.886;2022-10-17T10:49:29;4.00;;;2.87;;
7791;SDS011;3940;49.892;10.886;2022-10-17T10:52:18;3.03;;;2.73;;
7791;SDS011;3940;49.892;10.886;2022-10-17T10:55:14;16.87;;;3.37;;
7791;SDS011;3940;49.892;10.886;2022-10-17T10:58:05;5.53;;;2.50;;
7791;SDS011;3940;49.892;10.886;2022-10-17T11:01:05;3.23;;;2.27;;
7791;SDS011;3940;49.892;10.886;2022-10-17T11:04:04;2.90;;;2.60;;
7791;SDS011;3940;49.892;10.886;2022-10-17T11:07:13;2.20;;;2.10;;
7791;SDS011;3940;49.892;10.886;2022-10-17T11:13:13;4.57;;;2.80;;
7791;SDS011;3940;49.892;10.886;2022-10-17T11:16:06;3.77;;;2.60;;
7791;SDS011;3940;49.892;10.886;2022-10-17T11:19:13;6.10;;;2.90;;
7791;SDS011;3940;49.892;10.886;2022-10-17T11:22:24;3.37;;;3.03;;
7791;SDS011;3940;49.892;10.886;2022-10-17T11:25:19;2.60;;;2.40;;
7791;SDS011;3940;49.892;10.886;2022-10-17T11:28:18;2.63;;;2.43;;
7791;SDS011;3940;49.892;10.886;2022-10-17T11:31:05;4.10;;;2.87;;
7791;SDS011;3940;49.892;10.886;2022-10-17T11:33:56;3.93;;;3.10;;
7791;SDS011;3940;49.892;10.886;2022-10-17T11:36:47;4.93;;;3.27;;
7791;SDS011;3940;49.892;10.886;2022-10-17T11:39:44;2.90;;;2.70;;
7791;SDS011;3940;49.892;10.886;2022-10-17T11:42:41;2.40;;;2.20;;
7791;SDS011;3940;49.892;10.886;2022-10-17T11:45:41;3.30;;;3.00;;
7791;SDS011;3940;49.892;10.886;2022-10-17T11:48:30;2.80;;;2.60;;
7791;SDS011;3940;49.892;10.886;2022-10-17T11:51:30;2.80;;;2.60;;
7791;SDS011;3940;49.892;10.886;2022-10-17T11:54:29;2.93;;;2.60;;
7791;SDS011;3940;49.892;10.886;2022-10-17T12:00:42;3.00;;;2.70;;
7791;SDS011;3940;49.892;10.886;2022-10-17T12:04:05;2.72;;;2.53;;
7791;SDS011;3940;49.892;10.886;2022-10-17T12:07:01;5.18;;;2.95;;
7791;SDS011;3940;49.892;10.886;2022-10-17T12:09:58;6.43;;;3.20;;
7791;SDS011;3940;49.892;10.886;2022-10-17T12:12:50;3.33;;;2.65;;
7791;SDS011;3940;49.892;10.886;2022-10-17T12:15:35;5.47;;;2.95;;
7791;SDS011;3940;49.892;10.886;2022-10-17T12:18:22;3.10;;;2.90;;
7791;SDS011;3940;49.892;10.886;2022-10-17T12:21:09;4.07;;;2.45;;
7791;SDS011;3940;49.892;10.886;2022-10-17T12:23:54;2.65;;;2.50;;
7791;SDS011;3940;49.892;10.886;2022-10-17T12:26:39;3.38;;;2.85;;
7791;SDS011;3940;49.892;10.886;2022-10-17T12:29:27;3.55;;;2.65;;
7791;SDS011;3940;49.892;10.886;2022-10-17T12:32:12;3.35;;;2.50;;
7791;SDS011;3940;49.892;10.886;2022-10-17T12:34:59;3.42;;;2.63;;
7791;SDS011;3940;49.892;10.886;2022-10-17T12:38:00;3.50;;;3.20;;
7791;SDS011;3940;49.892;10.886;2022-10-17T12:40:48;3.37;;;3.07;;
7791;SDS011;3940;49.892;10.886;2022-10-17T12:43:35;6.33;;;3.63;;
7791;SDS011;3940;49.892;10.886;2022-10-17T12:46:40;5.63;;;2.97;;
7791;SDS011;3940;49.892;10.886;2022-10-17T12:55:40;3.40;;;3.10;;
7791;SDS011;3940;49.892;10.886;2022-10-17T12:58:24;3.88;;;3.47;;
7791;SDS011;3940;49.892;10.886;2022-10-17T13:01:16;5.15;;;3.47;;
7791;SDS011;3940;49.892;10.886;2022-10-17T13:04:07;4.18;;;3.25;;
7791;SDS011;3940;49.892;10.886;2022-10-17T13:06:54;3.78;;;2.55;;
7791;SDS011;3940;49.892;10.886;2022-10-17T13:09:41;6.35;;;3.95;;
7791;SDS011;3940;49.892;10.886;2022-10-17T13:12:26;6.18;;;5.53;;
7791;SDS011;3940;49.892;10.886;2022-10-17T13:15:11;3.00;;;2.80;;
7791;SDS011;3940;49.892;10.886;2022-10-17T13:18:00;2.83;;;2.63;;
7791;SDS011;3940;49.892;10.886;2022-10-17T13:20:53;3.95;;;2.65;;
7791;SDS011;3940;49.892;10.886;2022-10-17T13:23:39;3.40;;;3.10;;
7791;SDS011;3940;49.892;10.886;2022-10-17T13:26:25;4.95;;;2.67;;
7791;SDS011;3940;49.892;10.886;2022-10-17T13:29:12;3.30;;;3.00;;
7791;SDS011;3940;49.892;10.886;2022-10-17T13:31:58;2.78;;;2.35;;
7791;SDS011;3940;49.892;10.886;2022-10-17T13:34:46;4.32;;;2.78;;
7791;SDS011;3940;49.892;10.886;2022-10-17T13:37:52;4.35;;;3.42;;
7791;SDS011;3940;49.892;10.886;2022-10-17T13:40:39;3.60;;;3.30;;
7791;SDS011;3940;49.892;10.886;2022-10-17T13:43:25;2.92;;;2.72;;
7791;SDS011;3940;49.892;10.886;2022-10-17T13:46:14;5.15;;;3.17;;
7791;SDS011;3940;49.892;10.886;2022-10-17T13:49:15;3.03;;;2.83;;
7791;SDS011;3940;49.892;10.886;2022-10-17T13:52:15;6.68;;;2.97;;
7791;SDS011;3940;49.892;10.886;2022-10-17T13:55:06;3.88;;;2.95;;
7791;SDS011;3940;49.892;10.886;2022-10-17T13:58:14;4.00;;;2.85;;
7791;SDS011;3940;49.892;10.886;2022-10-17T14:00:59;4.17;;;2.67;;
7791;SDS011;3940;49.892;10.886;2022-10-17T14:03:44;9.93;;;3.83;;
7791;SDS011;3940;49.892;10.886;2022-10-17T14:06:30;3.73;;;3.07;;
7791;SDS011;3940;49.892;10.886;2022-10-17T14:09:27;2.90;;;2.70;;
7791;SDS011;3940;49.892;10.886;2022-10-17T14:12:13;4.10;;;2.93;;
7791;SDS011;3940;49.892;10.886;2022-10-17T14:15:00;5.63;;;3.13;;
7791;SDS011;3940;49.892;10.886;2022-10-17T14:17:52;3.87;;;3.17;;
7791;SDS011;3940;49.892;10.886;2022-10-17T14:20:39;3.50;;;3.20;;
7791;SDS011;3940;49.892;10.886;2022-10-17T14:23:35;12.90;;;3.67;;
7791;SDS011;3940;49.892;10.886;2022-10-17T14:26:21;3.95;;;3.00;;
7791;SDS011;3940;49.892;10.886;2022-10-17T14:29:17;3.28;;;2.95;;
7791;SDS011;3940;49.892;10.886;2022-10-17T14:32:06;3.47;;;3.27;;
7791;SDS011;3940;49.892;10.886;2022-10-17T14:34:57;3.40;;;3.03;;
7791;SDS011;3940;49.892;10.886;2022-10-17T14:37:44;3.27;;;3.07;;
7791;SDS011;3940;49.892;10.886;2022-10-17T14:40:32;2.87;;;2.60;;
7791;SDS011;3940;49.892;10.886;2022-10-17T14:43:20;3.07;;;2.77;;
7791;SDS011;3940;49.892;10.886;2022-10-17T14:46:11;3.60;;;3.30;;
7791;SDS011;3940;49.892;10.886;2022-10-17T14:49:03;4.03;;;3.70;;
7791;SDS011;3940;49.892;10.886;2022-10-17T14:54:53;3.00;;;2.80;;
7791;SDS011;3940;49.892;10.886;2022-10-17T14:57:41;4.33;;;2.77;;
7791;SDS011;3940;49.892;10.886;2022-10-17T15:00:27;3.93;;;3.30;;
7791;SDS011;3940;49.892;10.886;2022-10-17T15:03:12;3.70;;;3.40;;
7791;SDS011;3940;49.892;10.886;2022-10-17T15:05:56;3.70;;;3.40;;
7791;SDS011;3940;49.892;10.886;2022-10-17T15:08:41;7.43;;;3.77;;
7791;SDS011;3940;49.892;10.886;2022-10-17T15:11:26;4.37;;;3.97;;
7791;SDS011;3940;49.892;10.886;2022-10-17T15:14:11;3.73;;;3.33;;
7791;SDS011;3940;49.892;10.886;2022-10-17T15:16:55;9.03;;;4.10;;
7791;SDS011;3940;49.892;10.886;2022-10-17T15:19:39;4.03;;;3.33;;
7791;SDS011;3940;49.892;10.886;2022-10-17T15:22:26;6.17;;;3.90;;
7791;SDS011;3940;49.892;10.886;2022-10-17T15:25:11;5.80;;;4.90;;
7791;SDS011;3940;49.892;10.886;2022-10-17T15:27:55;4.00;;;3.60;;
7791;SDS011;3940;49.892;10.886;2022-10-17T15:30:40;4.30;;;3.57;;
7791;SDS011;3940;49.892;10.886;2022-10-17T15:33:25;4.10;;;3.50;;
7791;SDS011;3940;49.892;10.886;2022-10-17T15:36:15;6.27;;;4.70;;
7791;SDS011;3940;49.892;10.886;2022-10-17T15:39:02;6.07;;;5.00;;
7791;SDS011;3940;49.892;10.886;2022-10-17T15:41:47;9.93;;;5.10;;
7791;SDS011;3940;49.892;10.886;2022-10-17T15:44:31;6.20;;;4.63;;
7791;SDS011;3940;49.892;10.886;2022-10-17T15:47:21;4.93;;;4.53;;
7791;SDS011;3940;49.892;10.886;2022-10-17T15:50:12;7.10;;;4.53;;
7791;SDS011;3940;49.892;10.886;2022-10-17T15:52:58;4.37;;;3.97;;
7791;SDS011;3940;49.892;10.886;2022-10-17T15:55:43;13.50;;;5.60;;
7791;SDS011;3940;49.892;10.886;2022-10-17T15:58:30;6.10;;;5.60;;
7791;SDS011;3940;49.892;10.886;2022-10-17T16:01:24;11.00;;;5.67;;
7791;SDS011;3940;49.892;10.886;2022-10-17T16:04:11;8.40;;;4.90;;
7791;SDS011;3940;49.892;10.886;2022-10-17T16:06:58;7.33;;;5.57;;
7791;SDS011;3940;49.892;10.886;2022-10-17T16:09:42;5.20;;;4.27;;
7791;SDS011;3940;49.892;10.886;2022-10-17T16:12:27;9.23;;;5.10;;
7791;SDS011;3940;49.892;10.886;2022-10-17T16:15:14;6.53;;;4.97;;
7791;SDS011;3940;49.892;10.886;2022-10-17T16:18:05;7.60;;;4.27;;
7791;SDS011;3940;49.892;10.886;2022-10-17T16:20:49;8.33;;;7.50;;
7791;SDS011;3940;49.892;10.886;2022-10-17T16:23:34;7.10;;;5.10;;
7791;SDS011;3940;49.892;10.886;2022-10-17T16:26:18;8.07;;;5.97;;
7791;SDS011;3940;49.892;10.886;2022-10-17T16:29:02;5.83;;;5.00;;
7791;SDS011;3940;49.892;10.886;2022-10-17T16:31:50;8.73;;;6.83;;
7791;SDS011;3940;49.892;10.886;2022-10-17T16:34:34;16.93;;;4.73;;
7791;SDS011;3940;49.892;10.886;2022-10-17T16:37:18;16.47;;;7.10;;
7791;SDS011;3940;49.892;10.886;2022-10-17T16:40:02;11.00;;;8.73;;
7791;SDS011;3940;49.892;10.886;2022-10-17T16:42:47;8.10;;;7.30;;
7791;SDS011;3940;49.892;10.886;2022-10-17T16:45:31;6.37;;;5.87;;
7791;SDS011;3940;49.892;10.886;2022-10-17T16:48:15;10.57;;;8.47;;
7791;SDS011;3940;49.892;10.886;2022-10-17T16:51:00;6.97;;;6.27;;
7791;SDS011;3940;49.892;10.886;2022-10-17T16:53:45;13.80;;;7.70;;
7791;SDS011;3940;49.892;10.886;2022-10-17T16:56:32;6.63;;;6.07;;
7791;SDS011;3940;49.892;10.886;2022-10-17T16:59:16;6.67;;;6.07;;
7791;SDS011;3940;49.892;10.886;2022-10-17T17:02:00;9.00;;;7.30;;
7791;SDS011;3940;49.892;10.886;2022-10-17T17:04:45;8.40;;;6.03;;
7791;SDS011;3940;49.892;10.886;2022-10-17T17:07:28;12.40;;;7.03;;
7791;SDS011;3940;49.892;10.886;2022-10-17T17:10:13;11.63;;;6.80;;
7791;SDS011;3940;49.892;10.886;2022-10-17T17:12:57;11.17;;;6.67;;
7791;SDS011;3940;49.892;10.886;2022-10-17T17:15:43;18.63;;;6.67;;
7791;SDS011;3940;49.892;10.886;2022-10-17T17:18:28;7.20;;;6.60;;
7791;SDS011;3940;49.892;10.886;2022-10-17T17:21:16;12.73;;;9.70;;
7791;SDS011;3940;49.892;10.886;2022-10-17T17:24:01;8.93;;;6.40;;
7791;SDS011;3940;49.892;10.886;2022-10-17T17:26:50;12.03;;;7.50;;
7791;SDS011;3940;49.892;10.886;2022-10-17T17:29:36;8.53;;;5.93;;
7791;SDS011;3940;49.892;10.886;2022-10-17T17:32:20;7.80;;;7.00;;
7791;SDS011;3940;49.892;10.886;2022-10-17T17:35:05;16.43;;;9.37;;
7791;SDS011;3940;49.892;10.886;2022-10-17T17:37:49;8.87;;;6.33;;
7791;SDS011;3940;49.892;10.886;2022-10-17T17:40:34;6.90;;;5.83;;
7791;SDS011;3940;49.892;10.886;2022-10-17T17:43:19;12.90;;;6.83;;
7791;SDS011;3940;49.892;10.886;2022-10-17T17:46:03;10.30;;;5.77;;
7791;SDS011;3940;49.892;10.886;2022-10-17T17:48:49;9.77;;;7.87;;
7791;SDS011;3940;49.892;10.886;2022-10-17T17:51:34;5.80;;;5.13;;
7791;SDS011;3940;49.892;10.886;2022-10-17T17:54:20;8.77;;;7.10;;
7791;SDS011;3940;49.892;10.886;2022-10-17T17:57:04;10.57;;;9.30;;
7791;SDS011;3940;49.892;10.886;2022-10-17T17:59:48;14.83;;;6.43;;
7791;SDS011;3940;49.892;10.886;2022-10-17T18:02:33;9.10;;;7.10;;